Time;durP1;ratioP1;P1;durP2;ratioP2;P2;SDS_P1;SDS_P2;PMS_P1;PMS_P2;Temp;Humidity;BMP_temperature;BMP_pressure;BME280_temperature;BME280_humidity;BME280_pressure;Samples;Min_cycle;Max_cycle;Signal;HPM_P1;HPM_P2
2024/02/08 00:00:12;;;;;;;;;11.00;11.00;;;;;;;;5056518;28;8853;-86
2024/02/08 00:02:41;;;;;;;;;9.75;9.75;;;;;;;;5058610;28;8976;-87
2024/02/08 00:05:09;;;;;;;;;11.00;11.00;;;;;;;;5059155;28;8857;-87
2024/02/08 00:07:36;;;;;;;;;11.50;11.50;;;;;;;;5065181;28;8941;-85
2024/02/08 00:10:08;;;;;;;;;10.00;10.00;;;;;;;;5067634;28;8849;-84
2024/02/08 00:12:37;;;;;;;;;8.75;8.75;;;;;;;;5059295;28;8849;-85
2024/02/08 00:15:05;;;;;;;;;9.25;9.25;;;;;;;;5051791;28;8836;-85
2024/02/08 00:17:33;;;;;;;;;9.50;9.50;;;;;;;;5051454;28;8859;-84
2024/02/08 00:20:00;;;;;;;;;6.50;6.50;;;;;;;;5051431;28;8849;-88
2024/02/08 00:22:27;;;;;;;;;10.50;8.50;;;;;;;;5052022;28;8838;-86
2024/02/08 00:24:55;;;;;;;;;8.50;8.50;;;;;;;;5051304;28;8862;-86
2024/02/08 00:27:23;;;;;;;;;8.00;8.00;;;;;;;;5051838;28;8853;-88
2024/02/08 00:29:51;;;;;;;;;9.00;9.00;;;;;;;;5051564;28;9698;-86
2024/02/08 00:32:19;;;;;;;;;6.00;5.00;;;;;;;;5050297;28;8802;-84
2024/02/08 00:34:48;;;;;;;;;9.25;7.75;;;;;;;;5051209;28;8881;-84
2024/02/08 00:37:15;;;;;;;;;10.50;9.00;;;;;;;;5050943;28;8861;-85
2024/02/08 00:39:43;;;;;;;;;9.00;9.00;;;;;;;;5052478;28;8865;-84
2024/02/08 00:42:13;;;;;;;;;6.50;5.25;;;;;;;;5054351;28;8886;-87
2024/02/08 00:44:42;;;;;;;;;9.50;9.25;;;;;;;;5053726;28;8892;-86
2024/02/08 00:47:10;;;;;;;;;8.75;6.75;;;;;;;;5053008;28;8885;-88
2024/02/08 00:49:39;;;;;;;;;9.25;9.25;;;;;;;;5051899;28;8877;-85
2024/02/08 00:52:08;;;;;;;;;7.50;7.50;;;;;;;;5051044;28;8852;-87
2024/02/08 00:54:35;;;;;;;;;6.25;6.25;;;;;;;;5043323;28;8853;-84
2024/02/08 00:57:07;;;;;;;;;8.75;8.75;;;;;;;;5051664;28;8872;-85
2024/02/08 00:59:37;;;;;;;;;8.00;8.00;;;;;;;;5051350;28;8849;-85
2024/02/08 01:02:06;;;;;;;;;9.75;9.75;;;;;;;;5049598;28;8793;-85
2024/02/08 01:04:33;;;;;;;;;9.50;9.50;;;;;;;;5050929;28;8927;-83
2024/02/08 01:07:01;;;;;;;;;12.00;12.00;;;;;;;;5050459;28;8858;-85
2024/02/08 01:09:28;;;;;;;;;10.25;10.25;;;;;;;;5051110;28;8980;-85
2024/02/08 01:11:56;;;;;;;;;7.50;7.50;;;;;;;;5050755;28;8850;-84
2024/02/08 01:14:23;;;;;;;;;9.25;9.25;;;;;;;;5050798;28;8866;-84
2024/02/08 01:16:51;;;;;;;;;9.75;9.75;;;;;;;;5050581;28;8869;-83
2024/02/08 01:19:22;;;;;;;;;12.25;10.75;;;;;;;;5050467;28;8861;-85
2024/02/08 01:21:49;;;;;;;;;10.00;10.00;;;;;;;;5047103;28;8877;-84
2024/02/08 01:24:18;;;;;;;;;13.25;10.50;;;;;;;;5050550;28;8877;-86
2024/02/08 01:26:45;;;;;;;;;10.00;8.50;;;;;;;;5050704;28;8983;-85
2024/02/08 01:29:13;;;;;;;;;9.25;9.25;;;;;;;;5050419;28;8841;-85
2024/02/08 01:31:40;;;;;;;;;7.75;7.75;;;;;;;;5050494;28;8766;-84
2024/02/08 01:34:08;;;;;;;;;9.25;6.75;;;;;;;;5050588;28;8851;-83
2024/02/08 01:36:38;;;;;;;;;7.75;7.75;;;;;;;;5050679;28;9632;-84
2024/02/08 01:39:07;;;;;;;;;6.00;6.00;;;;;;;;5051645;28;8855;-85
2024/02/08 01:41:35;;;;;;;;;5.00;5.00;;;;;;;;5053805;28;8849;-83
2024/02/08 01:44:07;;;;;;;;;7.00;5.00;;;;;;;;5066094;28;8854;-84
2024/02/08 01:46:38;;;;;;;;;6.00;4.50;;;;;;;;5067043;28;8952;-85
2024/02/08 01:49:05;;;;;;;;;3.00;3.00;;;;;;;;5063550;28;8829;-86
2024/02/08 01:51:34;;;;;;;;;3.00;3.00;;;;;;;;5069303;28;8869;-84
2024/02/08 01:54:03;;;;;;;;;3.00;3.00;;;;;;;;5079705;28;8858;-84
2024/02/08 01:56:31;;;;;;;;;2.50;2.50;;;;;;;;5064306;28;8996;-84
2024/02/08 01:58:59;;;;;;;;;3.00;3.00;;;;;;;;5066885;28;8889;-84
2024/02/08 02:01:27;;;;;;;;;2.75;2.75;;;;;;;;5051266;28;8778;-84
2024/02/08 02:03:54;;;;;;;;;1.50;1.50;;;;;;;;5048983;28;8861;-85
2024/02/08 02:06:22;;;;;;;;;2.00;2.00;;;;;;;;5049512;28;8878;-83
2024/02/08 02:08:57;;;;;;;;;1.50;1.50;;;;;;;;5049512;28;9616;-86
2024/02/08 02:11:35;;;;;;;;;1.25;1.25;;;;;;;;5050007;28;8857;-85
2024/02/08 02:14:04;;;;;;;;;2.00;2.00;;;;;;;;5049940;28;8849;-86
2024/02/08 02:16:31;;;;;;;;;1.75;1.75;;;;;;;;5049183;28;8980;-86
2024/02/08 02:18:59;;;;;;;;;1.75;1.75;;;;;;;;5049774;28;8912;-86
2024/02/08 02:21:28;;;;;;;;;2.00;2.00;;;;;;;;5049536;28;8858;-87
2024/02/08 02:23:56;;;;;;;;;1.00;1.00;;;;;;;;5050442;28;8880;-84
2024/02/08 02:26:23;;;;;;;;;0.00;0.00;;;;;;;;5052841;28;8865;-85
2024/02/08 02:28:51;;;;;;;;;1.00;1.00;;;;;;;;5050979;28;8865;-85
2024/02/08 02:31:19;;;;;;;;;1.50;1.00;;;;;;;;5041628;28;9611;-85
2024/02/08 02:33:48;;;;;;;;;1.00;1.00;;;;;;;;5031088;28;8868;-84
2024/02/08 02:36:17;;;;;;;;;1.00;1.00;;;;;;;;5029923;28;8857;-86
2024/02/08 02:38:46;;;;;;;;;2.50;1.50;;;;;;;;5029178;28;8925;-84
2024/02/08 02:41:13;;;;;;;;;1.00;1.00;;;;;;;;5020773;28;9600;-84
2024/02/08 02:43:44;;;;;;;;;1.00;1.00;;;;;;;;5029008;28;8840;-84
2024/02/08 02:46:11;;;;;;;;;1.00;1.00;;;;;;;;5029413;28;8848;-85
2024/02/08 02:48:40;;;;;;;;;1.00;1.00;;;;;;;;5028613;28;8865;-83
2024/02/08 02:51:11;;;;;;;;;2.00;2.00;;;;;;;;5029671;28;8844;-84
2024/02/08 02:53:40;;;;;;;;;1.00;1.00;;;;;;;;5029073;28;8892;-85
2024/02/08 02:56:11;;;;;;;;;2.00;2.00;;;;;;;;5042510;28;8863;-85
2024/02/08 02:58:38;;;;;;;;;0.50;0.50;;;;;;;;5037393;28;8892;-85
2024/02/08 03:01:07;;;;;;;;;1.00;1.00;;;;;;;;5043879;28;8799;-85
2024/02/08 03:03:40;;;;;;;;;1.25;1.25;;;;;;;;5048761;28;8838;-85
2024/02/08 03:06:13;;;;;;;;;2.00;2.00;;;;;;;;5039030;28;8865;-86
2024/02/08 03:08:42;;;;;;;;;1.50;1.50;;;;;;;;5054409;28;8856;-85
2024/02/08 03:11:11;;;;;;;;;1.50;1.50;;;;;;;;5054978;28;8874;-85
2024/02/08 03:13:42;;;;;;;;;2.00;2.00;;;;;;;;5060948;28;8855;-83
2024/02/08 03:16:14;;;;;;;;;1.75;1.75;;;;;;;;5061853;28;8884;-83
2024/02/08 03:18:43;;;;;;;;;2.00;2.00;;;;;;;;5071935;28;8934;-84
2024/02/08 03:21:17;;;;;;;;;2.00;2.00;;;;;;;;5070223;28;8843;-83
2024/02/08 03:23:45;;;;;;;;;4.00;2.00;;;;;;;;5071838;28;8848;-83
2024/02/08 03:26:15;;;;;;;;;2.00;2.00;;;;;;;;5057494;28;9643;-85
2024/02/08 03:28:43;;;;;;;;;2.25;2.25;;;;;;;;5067943;28;8864;-84
2024/02/08 03:31:10;;;;;;;;;0.00;0.00;;;;;;;;5064309;28;8901;-83
2024/02/08 03:33:38;;;;;;;;;4.50;4.50;;;;;;;;5055058;28;8861;-84
2024/02/08 03:36:07;;;;;;;;;4.00;4.00;;;;;;;;5060225;28;8856;-84
2024/02/08 03:38:34;;;;;;;;;3.75;3.75;;;;;;;;5055084;28;8862;-84
2024/02/08 03:41:01;;;;;;;;;4.00;4.00;;;;;;;;5055551;28;8984;-84
2024/02/08 03:43:32;;;;;;;;;5.00;3.50;;;;;;;;5047171;28;8912;-85
2024/02/08 03:46:01;;;;;;;;;3.50;3.50;;;;;;;;5057049;28;8850;-82
2024/02/08 03:48:29;;;;;;;;;3.00;3.00;;;;;;;;5055874;28;8901;-82
2024/02/08 03:51:00;;;;;;;;;4.00;4.00;;;;;;;;5071918;28;8855;-83
2024/02/08 03:53:28;;;;;;;;;4.00;4.00;;;;;;;;5057431;28;8843;-83
2024/02/08 03:55:55;;;;;;;;;3.25;1.75;;;;;;;;5048276;28;8845;-83
2024/02/08 03:58:23;;;;;;;;;2.00;2.00;;;;;;;;5052172;28;8892;-84
2024/02/08 04:00:53;;;;;;;;;3.25;2.25;;;;;;;;5051485;28;8896;-83
2024/02/08 04:03:43;;;;;;;;;3.00;3.00;;;;;;;;5051723;28;9608;-83
2024/02/08 04:06:26;;;;;;;;;3.00;3.00;;;;;;;;5041375;28;8853;-85
2024/02/08 04:09:08;;;;;;;;;2.00;2.00;;;;;;;;5053378;28;8850;-87
2024/02/08 04:55:48;;;;;;;;;4.75;4.75;;;;;;;;5027568;28;8872;-85
2024/02/08 04:58:17;;;;;;;;;5.50;5.50;;;;;;;;5055428;28;9000;-85
2024/02/08 05:00:45;;;;;;;;;4.75;4.75;;;;;;;;5053706;28;8766;-85
2024/02/08 05:03:19;;;;;;;;;5.00;5.00;;;;;;;;5050426;28;8887;-85
2024/02/08 05:05:48;;;;;;;;;25.00;14.25;;;;;;;;5050970;28;8870;-84
2024/02/08 05:08:16;;;;;;;;;4.75;4.75;;;;;;;;5050858;28;8996;-86
2024/02/08 05:10:44;;;;;;;;;10.75;7.75;;;;;;;;5051303;28;8859;-85
2024/02/08 05:13:13;;;;;;;;;6.25;5.00;;;;;;;;5050700;28;9623;-89
2024/02/08 05:15:41;;;;;;;;;6.00;6.00;;;;;;;;5051044;28;9675;-87
2024/02/08 05:18:12;;;;;;;;;4.75;4.75;;;;;;;;5050985;28;8865;-87
2024/02/08 05:20:40;;;;;;;;;4.75;4.75;;;;;;;;5051280;28;8943;-86
2024/02/08 05:23:08;;;;;;;;;3.25;3.25;;;;;;;;5053033;28;8963;-88
2024/02/08 05:25:36;;;;;;;;;4.75;4.00;;;;;;;;5054208;28;8969;-87
2024/02/08 05:28:09;;;;;;;;;4.75;4.75;;;;;;;;5055005;28;8989;-86
2024/02/08 05:30:36;;;;;;;;;4.00;4.00;;;;;;;;5054633;28;8799;-86
2024/02/08 05:33:04;;;;;;;;;4.00;2.25;;;;;;;;5055529;28;8961;-85
2024/02/08 05:35:33;;;;;;;;;2.75;2.75;;;;;;;;5054792;28;8889;-86
2024/02/08 05:38:01;;;;;;;;;2.75;2.75;;;;;;;;5054560;28;8844;-87
2024/02/08 05:40:43;;;;;;;;;2.00;2.00;;;;;;;;5050625;28;8873;-86
2024/02/08 05:43:16;;;;;;;;;1.00;1.00;;;;;;;;5050415;28;8936;-89
2024/02/08 05:45:51;;;;;;;;;2.00;2.00;;;;;;;;5032213;28;8869;-88
2024/02/08 05:48:19;;;;;;;;;1.50;1.50;;;;;;;;5050213;28;8865;-84
2024/02/08 05:50:47;;;;;;;;;0.25;0.25;;;;;;;;5049656;28;8873;-88
2024/02/08 05:53:17;;;;;;;;;1.00;1.00;;;;;;;;5050100;28;8873;-86
2024/02/08 05:55:48;;;;;;;;;1.25;1.25;;;;;;;;5054974;28;8865;-87
2024/02/08 05:58:18;;;;;;;;;1.00;1.00;;;;;;;;5060153;28;8901;-86
2024/02/08 06:01:01;;;;;;;;;0.50;0.50;;;;;;;;5057310;28;8911;-86
2024/02/08 06:03:33;;;;;;;;;0.75;0.75;;;;;;;;5050654;28;8858;-85
2024/02/08 06:06:07;;;;;;;;;1.50;1.00;;;;;;;;5049208;28;8935;-80
2024/02/08 06:08:44;;;;;;;;;0.75;0.75;;;;;;;;5049345;28;8874;-77
2024/02/08 06:11:19;;;;;;;;;0.50;0.50;;;;;;;;5050257;28;8865;-75
2024/02/08 06:13:55;;;;;;;;;1.00;1.00;;;;;;;;5063950;28;9639;-76
2024/02/08 06:16:45;;;;;;;;;1.00;1.00;;;;;;;;5051698;28;8911;-77
2024/02/08 06:19:34;;;;;;;;;1.00;1.00;;;;;;;;5050295;28;8835;-77
2024/02/08 06:22:16;;;;;;;;;0.00;0.00;;;;;;;;5051710;28;8894;-78
2024/02/08 06:24:45;;;;;;;;;0.00;0.00;;;;;;;;5046719;28;8971;-77
2024/02/08 06:27:13;;;;;;;;;1.00;1.00;;;;;;;;5056207;28;8960;-77
2024/02/08 06:29:46;;;;;;;;;0.75;0.75;;;;;;;;5055968;28;8834;-81
2024/02/08 06:32:23;;;;;;;;;0.50;0.50;;;;;;;;5056147;28;8791;-78
2024/02/08 06:35:07;;;;;;;;;0.75;0.75;;;;;;;;5050041;28;8852;-74
2024/02/08 06:37:42;;;;;;;;;0.00;0.00;;;;;;;;5056940;28;8923;-82
2024/02/08 06:40:17;;;;;;;;;0.75;0.75;;;;;;;;5057084;28;8932;-77
2024/02/08 06:43:15;;;;;;;;;0.50;0.50;;;;;;;;5059796;28;8837;-76
2024/02/08 06:45:53;;;;;;;;;0.75;0.75;;;;;;;;5057129;28;8863;-77
2024/02/08 07:41:12;;;;;;;;;1.00;1.00;;;;;;;;5017716;28;8876;-74
2024/02/08 07:43:54;;;;;;;;;1.00;1.00;;;;;;;;5027407;28;8875;-75
2024/02/08 07:46:29;;;;;;;;;10.00;9.50;;;;;;;;5027493;28;8933;-79
2024/02/08 07:49:04;;;;;;;;;2.75;2.00;;;;;;;;5027357;28;8918;-74
2024/02/08 07:51:33;;;;;;;;;5.25;2.00;;;;;;;;5027482;28;9644;-75
2024/02/08 07:54:10;;;;;;;;;2.50;1.00;;;;;;;;5027869;28;8857;-84
2024/02/08 07:56:46;;;;;;;;;2.75;2.75;;;;;;;;5029190;28;8863;-74
2024/02/08 07:59:16;;;;;;;;;1.25;1.25;;;;;;;;5036839;28;8925;-74
2024/02/08 08:01:49;;;;;;;;;4.25;3.00;;;;;;;;5026626;28;8874;-74
2024/02/08 08:04:41;;;;;;;;;2.00;2.00;;;;;;;;5030868;28;8875;-75
2024/02/08 08:07:09;;;;;;;;;2.00;2.00;;;;;;;;5030572;28;8877;-73
2024/02/08 08:09:37;;;;;;;;;2.00;2.00;;;;;;;;5030829;28;8836;-77
2024/02/08 08:12:05;;;;;;;;;7.75;4.50;;;;;;;;5039439;28;8841;-76
2024/02/08 08:17:31;;;;;;;;;3.00;3.00;;;;;;;;5031018;28;9631;-76
2024/02/08 08:20:15;;;;;;;;;5.50;4.25;;;;;;;;5031268;28;8840;-75
2024/02/08 08:22:54;;;;;;;;;4.50;4.50;;;;;;;;5029842;28;8905;-75
2024/02/08 08:25:29;;;;;;;;;7.25;5.00;;;;;;;;5031032;28;8848;-77
2024/02/08 08:28:29;;;;;;;;;8.75;4.50;;;;;;;;5036023;28;8865;-74
2024/02/08 08:31:13;;;;;;;;;6.50;5.75;;;;;;;;5031610;28;8798;-75
2024/02/08 08:36:29;;;;;;;;;2.25;2.25;;;;;;;;5030482;28;8832;-75
2024/02/08 08:39:41;;;;;;;;;4.00;4.00;;;;;;;;5030101;28;8863;-77
2024/02/08 08:41:47;;;;;;;;;7.25;6.00;;;;;;;;5029807;28;8933;-74
2024/02/08 08:44:18;;;;;;;;;5.75;5.00;;;;;;;;5029931;28;8872;-78
2024/02/08 08:46:45;;;;;;;;;7.75;6.00;;;;;;;;5029734;28;8868;-81
2024/02/08 08:49:14;;;;;;;;;7.00;5.50;;;;;;;;5030628;28;8878;-75
2024/02/08 08:51:58;;;;;;;;;5.00;5.00;;;;;;;;5029855;28;8851;-77
2024/02/08 08:54:29;;;;;;;;;8.00;6.00;;;;;;;;5033364;28;8850;-78
2024/02/08 08:56:57;;;;;;;;;10.50;7.25;;;;;;;;5050485;28;8866;-78
2024/02/08 08:59:26;;;;;;;;;5.50;5.00;;;;;;;;5052338;28;8880;-80
2024/02/08 09:01:53;;;;;;;;;6.75;6.00;;;;;;;;5052251;28;8805;-84
2024/02/08 09:04:31;;;;;;;;;6.75;6.75;;;;;;;;5053741;28;8857;-77
2024/02/08 09:07:10;;;;;;;;;5.75;5.00;;;;;;;;5053599;28;8865;-77
2024/02/08 09:10:00;;;;;;;;;6.00;6.00;;;;;;;;5049543;28;8861;-78
2024/02/08 09:12:36;;;;;;;;;11.75;7.00;;;;;;;;5054109;28;8835;-82
2024/02/08 09:15:26;;;;;;;;;8.75;6.75;;;;;;;;5053123;28;8859;-76
2024/02/08 09:17:57;;;;;;;;;9.50;7.50;;;;;;;;5047455;28;8831;-74
2024/02/08 09:20:29;;;;;;;;;15.75;7.25;;;;;;;;5049358;28;8880;-76
2024/02/08 09:23:12;;;;;;;;;10.50;7.25;;;;;;;;5049329;28;8888;-74
2024/02/08 09:25:44;;;;;;;;;13.50;8.25;;;;;;;;5043775;28;8977;-74
2024/02/08 09:28:26;;;;;;;;;13.50;8.75;;;;;;;;5048654;28;8872;-78
2024/02/08 09:30:53;;;;;;;;;12.25;8.25;;;;;;;;5048254;28;8914;-74
2024/02/08 09:33:40;;;;;;;;;5.75;5.75;;;;;;;;5048637;28;8965;-78
2024/02/08 09:36:07;;;;;;;;;8.50;8.25;;;;;;;;5047451;28;8853;-74
2024/02/08 09:38:43;;;;;;;;;9.00;6.25;;;;;;;;5048803;28;8843;-76
2024/02/08 09:41:15;;;;;;;;;10.50;10.50;;;;;;;;5049552;28;8873;-82
2024/02/08 09:43:44;;;;;;;;;12.75;11.25;;;;;;;;5049706;28;8884;-75
2024/02/08 09:46:28;;;;;;;;;10.75;6.50;;;;;;;;5047255;28;8970;-76
2024/02/08 09:48:57;;;;;;;;;11.25;8.00;;;;;;;;5050031;28;8870;-78
2024/02/08 09:51:25;;;;;;;;;9.50;8.00;;;;;;;;5050209;28;8882;-74
2024/02/08 09:54:01;;;;;;;;;13.50;8.50;;;;;;;;5049063;28;8835;-74
2024/02/08 09:56:35;;;;;;;;;12.50;7.25;;;;;;;;5048412;28;8858;-73
2024/02/08 09:59:07;;;;;;;;;13.75;9.00;;;;;;;;5048971;28;8839;-74
2024/02/08 10:01:37;;;;;;;;;3.00;2.50;;;;;;;;5048009;28;8905;-78
2024/02/08 10:04:14;;;;;;;;;10.50;8.00;;;;;;;;5048847;28;9629;-77
2024/02/08 10:06:45;;;;;;;;;11.50;9.00;;;;;;;;5048401;28;9622;-87
2024/02/08 10:12:07;;;;;;;;;10.25;7.75;;;;;;;;5036635;28;8932;-80
2024/02/08 10:14:35;;;;;;;;;9.50;7.25;;;;;;;;5049245;28;8859;-82
2024/02/08 10:17:15;;;;;;;;;12.25;10.75;;;;;;;;5048828;28;8858;-76
2024/02/08 10:20:31;;;;;;;;;10.00;8.50;;;;;;;;5047622;28;9715;-82
2024/02/08 10:22:53;;;;;;;;;12.50;9.25;;;;;;;;5047756;28;8846;-81
2024/02/08 10:28:10;;;;;;;;;11.00;6.00;;;;;;;;5046529;28;8823;-76
2024/02/08 10:30:38;;;;;;;;;8.75;8.75;;;;;;;;5047687;28;8832;-82
2024/02/08 10:33:14;;;;;;;;;13.50;9.75;;;;;;;;5048564;28;8888;-87
2024/02/08 10:35:41;;;;;;;;;7.75;5.75;;;;;;;;5048592;28;8857;-80
2024/02/08 10:38:25;;;;;;;;;4.00;4.00;;;;;;;;5048112;28;8877;-82
2024/02/08 10:40:56;;;;;;;;;5.75;4.75;;;;;;;;5048420;28;8863;-83
2024/02/08 10:43:25;;;;;;;;;6.50;6.00;;;;;;;;5048360;28;8869;-78
2024/02/08 10:45:54;;;;;;;;;10.00;7.50;;;;;;;;5048887;28;8855;-78
2024/02/08 10:48:22;;;;;;;;;6.50;5.25;;;;;;;;5051211;28;8853;-78
2024/02/08 10:50:50;;;;;;;;;11.75;7.75;;;;;;;;5051115;28;9000;-80
2024/02/08 10:53:43;;;;;;;;;10.00;7.25;;;;;;;;5050859;28;8893;-77
2024/02/08 10:56:14;;;;;;;;;10.00;7.75;;;;;;;;5057133;28;8874;-74
2024/02/08 10:58:55;;;;;;;;;8.75;6.50;;;;;;;;5049124;28;8881;-74
2024/02/08 11:01:37;;;;;;;;;7.50;7.25;;;;;;;;5050522;28;8794;-78
2024/02/08 11:04:17;;;;;;;;;9.25;7.75;;;;;;;;5054362;28;8843;-79
2024/02/08 11:06:54;;;;;;;;;6.25;6.25;;;;;;;;5047713;28;9628;-81
2024/02/08 11:09:22;;;;;;;;;5.25;4.75;;;;;;;;5052306;28;8850;-78
2024/02/08 11:11:59;;;;;;;;;9.25;6.75;;;;;;;;5046401;28;8852;-77
2024/02/08 11:14:29;;;;;;;;;8.25;5.00;;;;;;;;5051432;28;8874;-76
2024/02/08 11:17:00;;;;;;;;;7.75;6.75;;;;;;;;5058644;28;8854;-76
2024/02/08 11:19:34;;;;;;;;;9.00;8.00;;;;;;;;5069383;28;8850;-85
2024/02/08 11:22:18;;;;;;;;;10.00;6.75;;;;;;;;5062343;28;8858;-77
2024/02/08 11:24:58;;;;;;;;;7.50;6.75;;;;;;;;5055797;28;8896;-85
2024/02/08 11:27:34;;;;;;;;;7.75;5.75;;;;;;;;5067327;28;8861;-81
2024/02/08 11:30:10;;;;;;;;;7.75;5.25;;;;;;;;5062828;28;8865;-78
2024/02/08 11:32:38;;;;;;;;;10.25;8.25;;;;;;;;5041966;28;8813;-79
2024/02/08 11:35:12;;;;;;;;;10.75;6.50;;;;;;;;5046263;28;8848;-77
2024/02/08 11:37:40;;;;;;;;;11.75;9.75;;;;;;;;5030172;28;8870;-81
2024/02/08 11:40:11;;;;;;;;;9.75;8.75;;;;;;;;5043745;28;8836;-74
2024/02/08 11:42:42;;;;;;;;;8.75;7.50;;;;;;;;5031613;28;8836;-75
2024/02/08 11:45:11;;;;;;;;;7.75;6.75;;;;;;;;5046757;28;8920;-77
2024/02/08 11:47:40;;;;;;;;;11.25;8.25;;;;;;;;5031201;28;8866;-78
2024/02/08 11:50:11;;;;;;;;;8.50;6.25;;;;;;;;5032276;28;8846;-77
2024/02/08 11:52:39;;;;;;;;;12.00;8.00;;;;;;;;5050094;28;8843;-77
2024/02/08 11:55:10;;;;;;;;;10.75;8.00;;;;;;;;5048623;28;8837;-75
2024/02/08 11:57:40;;;;;;;;;7.50;7.00;;;;;;;;5049611;28;8852;-76
2024/02/08 12:00:17;;;;;;;;;7.25;7.25;;;;;;;;5036308;28;8856;-78
2024/02/08 12:02:56;;;;;;;;;8.25;8.25;;;;;;;;5049604;28;8889;-78
2024/02/08 12:05:24;;;;;;;;;9.25;8.00;;;;;;;;5019414;28;8862;-77
2024/02/08 12:07:51;;;;;;;;;6.50;6.00;;;;;;;;5031021;28;9000;-76
2024/02/08 12:10:22;;;;;;;;;9.50;7.00;;;;;;;;5049260;28;8997;-81
2024/02/08 12:12:53;;;;;;;;;9.00;7.50;;;;;;;;5034986;28;8859;-79
2024/02/08 12:15:21;;;;;;;;;10.00;8.00;;;;;;;;5048595;28;9649;-77
2024/02/08 12:17:52;;;;;;;;;9.50;6.50;;;;;;;;5034546;28;8872;-78
2024/02/08 12:20:20;;;;;;;;;8.75;8.75;;;;;;;;5022010;28;8876;-74
2024/02/08 12:22:54;;;;;;;;;9.50;8.25;;;;;;;;5030934;28;8882;-78
2024/02/08 12:25:21;;;;;;;;;10.25;9.00;;;;;;;;5032160;28;8847;-82
2024/02/08 12:27:57;;;;;;;;;10.50;8.50;;;;;;;;5033596;28;8872;-81
2024/02/08 12:30:28;;;;;;;;;8.75;7.25;;;;;;;;5037417;28;8874;-77
2024/02/08 12:32:58;;;;;;;;;7.00;7.00;;;;;;;;5033047;28;8975;-79
2024/02/08 12:35:30;;;;;;;;;9.75;7.25;;;;;;;;5037293;28;8868;-84
2024/02/08 12:38:01;;;;;;;;;9.00;6.00;;;;;;;;5041831;28;8872;-81
2024/02/08 12:40:29;;;;;;;;;10.50;8.75;;;;;;;;5034271;28;8856;-77
2024/02/08 12:42:58;;;;;;;;;9.75;9.75;;;;;;;;5033617;28;8875;-75
2024/02/08 12:45:28;;;;;;;;;11.75;8.25;;;;;;;;5042127;28;8974;-78
2024/02/08 12:47:57;;;;;;;;;12.25;9.00;;;;;;;;5032551;28;8883;-80
2024/02/08 12:50:25;;;;;;;;;10.00;9.25;;;;;;;;5036524;28;8860;-78
2024/02/08 12:52:55;;;;;;;;;8.00;7.00;;;;;;;;5030741;28;8954;-78
2024/02/08 12:55:24;;;;;;;;;7.25;7.25;;;;;;;;5045106;28;8853;-73
2024/02/08 12:58:02;;;;;;;;;10.75;9.75;;;;;;;;5049623;28;9600;-77
2024/02/08 13:00:33;;;;;;;;;13.25;9.75;;;;;;;;5045249;28;8750;-77
2024/02/08 13:03:05;;;;;;;;;10.00;8.75;;;;;;;;5049039;28;9298;-78
2024/02/08 13:05:36;;;;;;;;;8.25;8.25;;;;;;;;5049361;28;8838;-76
2024/02/08 13:08:06;;;;;;;;;10.75;9.50;;;;;;;;5049325;28;8880;-74
2024/02/08 13:10:33;;;;;;;;;12.25;8.00;;;;;;;;5049672;28;8891;-76
2024/02/08 13:13:03;;;;;;;;;11.00;7.75;;;;;;;;5049123;28;8982;-76
2024/02/08 13:15:34;;;;;;;;;8.75;8.75;;;;;;;;5049414;28;8857;-76
2024/02/08 13:18:02;;;;;;;;;9.75;9.75;;;;;;;;5049348;28;8853;-76
2024/02/08 13:20:29;;;;;;;;;12.50;10.75;;;;;;;;5049989;28;8883;-74
2024/02/08 13:22:57;;;;;;;;;12.00;10.50;;;;;;;;5050989;28;8976;-75
2024/02/08 13:25:28;;;;;;;;;10.50;9.00;;;;;;;;5051199;28;8861;-76
2024/02/08 13:27:57;;;;;;;;;7.00;5.25;;;;;;;;5048878;28;8973;-75
2024/02/08 13:30:29;;;;;;;;;12.25;10.75;;;;;;;;5049709;28;8753;-79
2024/02/08 13:32:57;;;;;;;;;9.00;9.00;;;;;;;;5045035;28;8854;-75
2024/02/08 13:35:28;;;;;;;;;8.25;8.25;;;;;;;;5048961;28;8838;-75
2024/02/08 13:37:57;;;;;;;;;8.25;7.50;;;;;;;;5049460;28;8849;-77
2024/02/08 13:40:25;;;;;;;;;10.50;8.25;;;;;;;;5048648;28;8850;-74
2024/02/08 13:42:55;;;;;;;;;12.75;9.00;;;;;;;;5048919;28;8838;-77
2024/02/08 13:45:24;;;;;;;;;8.50;8.50;;;;;;;;5048383;28;8869;-74
2024/02/08 13:47:55;;;;;;;;;9.25;7.75;;;;;;;;5048436;28;8864;-76
2024/02/08 13:50:24;;;;;;;;;13.00;9.75;;;;;;;;5048804;28;8943;-76
2024/02/08 13:52:52;;;;;;;;;12.00;10.75;;;;;;;;5048780;28;8972;-78
2024/02/08 13:55:20;;;;;;;;;11.50;7.50;;;;;;;;5048314;28;8881;-79
2024/02/08 13:57:50;;;;;;;;;9.50;6.25;;;;;;;;5048972;28;8850;-80
2024/02/08 14:00:21;;;;;;;;;11.25;10.25;;;;;;;;5047818;28;8872;-75
2024/02/08 14:02:51;;;;;;;;;10.25;8.25;;;;;;;;5050377;28;8885;-77
2024/02/08 14:05:23;;;;;;;;;9.75;8.25;;;;;;;;5042040;28;8908;-77
2024/02/08 14:07:54;;;;;;;;;10.75;9.50;;;;;;;;5049488;28;8857;-74
2024/02/08 14:10:31;;;;;;;;;9.75;6.50;;;;;;;;5049144;28;8909;-79
2024/02/08 14:13:06;;;;;;;;;11.75;9.75;;;;;;;;5060525;28;8988;-77
2024/02/08 14:15:38;;;;;;;;;4.25;4.00;;;;;;;;5048411;28;8849;-80
2024/02/08 14:18:22;;;;;;;;;7.50;6.50;;;;;;;;5047862;28;8861;-78
2024/02/08 14:20:56;;;;;;;;;8.25;6.50;;;;;;;;5048395;28;8964;-79
2024/02/08 14:23:31;;;;;;;;;10.00;8.00;;;;;;;;5048997;28;8880;-77
2024/02/08 14:26:30;;;;;;;;;9.75;8.00;;;;;;;;5049946;28;8865;-78
2024/02/08 14:28:59;;;;;;;;;10.25;6.25;;;;;;;;5049030;28;8825;-79
2024/02/08 14:31:26;;;;;;;;;8.00;6.50;;;;;;;;5049705;28;8797;-79
2024/02/08 14:33:55;;;;;;;;;6.00;6.00;;;;;;;;5050187;28;8854;-79
2024/02/08 14:36:24;;;;;;;;;8.50;8.50;;;;;;;;5050579;28;8900;-80
2024/02/08 14:38:53;;;;;;;;;11.25;8.50;;;;;;;;5049916;28;8853;-74
2024/02/08 14:41:32;;;;;;;;;9.50;7.75;;;;;;;;5049635;28;8861;-76
2024/02/08 14:44:07;;;;;;;;;11.00;8.50;;;;;;;;5047807;28;8870;-75
2024/02/08 14:46:34;;;;;;;;;14.25;10.25;;;;;;;;5047488;28;8849;-77
2024/02/08 14:49:16;;;;;;;;;11.50;10.75;;;;;;;;5047905;28;9231;-77
2024/02/08 14:51:47;;;;;;;;;10.00;9.50;;;;;;;;5048398;28;8850;-82
2024/02/08 14:54:18;;;;;;;;;10.25;6.75;;;;;;;;5048184;28;8849;-79
2024/02/08 14:57:03;;;;;;;;;13.00;11.75;;;;;;;;5047654;28;8870;-74
2024/02/08 14:59:35;;;;;;;;;8.50;8.25;;;;;;;;5047513;28;8976;-77
2024/02/08 15:02:13;;;;;;;;;12.75;9.00;;;;;;;;5046709;28;8806;-79
2024/02/08 15:04:45;;;;;;;;;12.25;8.50;;;;;;;;5047679;28;8859;-75
2024/02/08 15:09:57;;;;;;;;;9.25;9.00;;;;;;;;5047516;28;8865;-77
2024/02/08 15:12:27;;;;;;;;;9.25;9.00;;;;;;;;5050355;28;8865;-78
2024/02/08 15:15:03;;;;;;;;;9.00;9.00;;;;;;;;5052041;28;8845;-75
2024/02/08 15:17:42;;;;;;;;;5.75;5.00;;;;;;;;5052424;28;8865;-79
2024/02/08 15:23:09;;;;;;;;;9.50;9.50;;;;;;;;5050660;28;8919;-77
2024/02/08 15:25:43;;;;;;;;;12.50;10.50;;;;;;;;5051126;28;8845;-75
2024/02/08 15:28:34;;;;;;;;;11.50;11.00;;;;;;;;5051771;28;8858;-81
2024/02/08 15:34:07;;;;;;;;;15.25;12.00;;;;;;;;5033527;28;8958;-76
2024/02/08 15:36:46;;;;;;;;;15.25;13.50;;;;;;;;5043562;28;8857;-78
2024/02/08 15:42:17;;;;;;;;;12.25;11.75;;;;;;;;5051006;28;8880;-79
2024/02/08 15:44:52;;;;;;;;;13.50;13.50;;;;;;;;5050828;28;8939;-78
2024/02/08 15:47:20;;;;;;;;;14.00;12.25;;;;;;;;5050676;28;8838;-74
2024/02/08 15:49:53;;;;;;;;;12.75;12.75;;;;;;;;5050951;28;8857;-79
2024/02/08 15:52:22;;;;;;;;;18.00;14.00;;;;;;;;5038707;28;8879;-76
2024/02/08 15:54:55;;;;;;;;;12.67;12.67;;;;;;;;5050184;28;8919;-79
2024/02/08 15:57:25;;;;;;;;;14.75;11.75;;;;;;;;5050575;28;8858;-81
2024/02/08 15:59:57;;;;;;;;;16.50;11.75;;;;;;;;5050378;28;8858;-79
2024/02/08 16:02:25;;;;;;;;;13.25;12.50;;;;;;;;5050717;28;8806;-79
2024/02/08 16:04:52;;;;;;;;;18.00;11.50;;;;;;;;5050436;28;8849;-76
2024/02/08 16:07:19;;;;;;;;;15.00;15.00;;;;;;;;5051533;28;9988;-82
2024/02/08 16:09:49;;;;;;;;;14.00;11.00;;;;;;;;5051565;28;9616;-81
2024/02/08 16:12:23;;;;;;;;;12.75;11.75;;;;;;;;5051939;28;8866;-74
2024/02/08 16:14:59;;;;;;;;;12.50;10.25;;;;;;;;5051579;28;8873;-78
2024/02/08 16:17:39;;;;;;;;;12.75;8.75;;;;;;;;5053684;28;8875;-78
2024/02/08 16:20:23;;;;;;;;;12.50;10.00;;;;;;;;5042670;28;8846;-82
2024/02/08 16:22:55;;;;;;;;;13.25;13.25;;;;;;;;5052093;28;8877;-77
2024/02/08 16:28:24;;;;;;;;;11.25;11.25;;;;;;;;4991964;28;8937;-83
2024/02/08 16:31:00;;;;;;;;;16.25;12.00;;;;;;;;4992189;28;8812;-79
2024/02/08 16:33:48;;;;;;;;;17.50;11.50;;;;;;;;4999260;28;8895;-83
2024/02/08 16:39:07;;;;;;;;;14.25;12.00;;;;;;;;4996040;28;8853;-77
2024/02/08 16:41:34;;;;;;;;;12.00;12.00;;;;;;;;5049925;28;8885;-80
2024/02/08 16:44:08;;;;;;;;;14.75;11.25;;;;;;;;5049848;28;8860;-78
2024/02/08 16:46:39;;;;;;;;;14.75;13.75;;;;;;;;5049634;28;9628;-77
2024/02/08 16:49:07;;;;;;;;;15.25;14.00;;;;;;;;5049902;28;8849;-76
2024/02/08 16:51:44;;;;;;;;;18.25;13.50;;;;;;;;5049270;28;8979;-83
2024/02/08 16:56:57;;;;;;;;;11.50;11.50;;;;;;;;5050316;28;8944;-81
2024/02/08 16:59:35;;;;;;;;;13.50;12.00;;;;;;;;5051742;28;9680;-81
2024/02/08 17:02:07;;;;;;;;;11.33;10.00;;;;;;;;5054329;28;8806;-77
2024/02/08 17:04:48;;;;;;;;;20.00;16.67;;;;;;;;5051414;28;9029;-79
2024/02/08 17:07:24;;;;;;;;;13.00;13.00;;;;;;;;5050344;28;8965;-82
2024/02/08 17:09:57;;;;;;;;;18.00;17.33;;;;;;;;5050093;28;8944;-84
2024/02/08 17:12:44;;;;;;;;;12.75;10.75;;;;;;;;5050709;28;9046;-80
2024/02/08 17:15:27;;;;;;;;;16.00;12.67;;;;;;;;5039440;28;8853;-81
2024/02/08 17:18:05;;;;;;;;;18.33;18.33;;;;;;;;5048854;28;9010;-81
2024/02/08 17:20:42;;;;;;;;;21.33;17.00;;;;;;;;5049459;28;9189;-80
2024/02/08 17:23:16;;;;;;;;;23.00;20.67;;;;;;;;5037640;28;9083;-81
2024/02/08 17:25:55;;;;;;;;;18.00;14.67;;;;;;;;5049690;28;9213;-83
2024/02/08 17:28:35;;;;;;;;;26.33;19.67;;;;;;;;5050138;28;9126;-82